createdAt,value
2022-09-01T00:00:49.288Z,97879.63
2022-09-01T00:03:19.112Z,97877.13
2022-09-01T00:05:51.022Z,97880.66
2022-09-01T00:08:19.522Z,97878.97
2022-09-01T00:10:49.468Z,97887.03
2022-09-01T00:13:18.783Z,97883.34
2022-09-01T00:15:47.370Z,97884.16
2022-09-01T00:18:15.853Z,97880.66
2022-09-01T00:20:44.398Z,97884.16
2022-09-01T00:23:12.845Z,97885.19
2022-09-01T00:25:41.254Z,97875.28
2022-09-01T00:28:10.996Z,97879.81
2022-09-01T00:30:39.342Z,97879.81
2022-09-01T00:33:08.155Z,97878.97
2022-09-01T00:35:37.067Z,97874.44
2022-09-01T00:38:05.829Z,97878.97
2022-09-01T00:40:34.587Z,97875.47
2022-09-01T00:43:03.149Z,97876.47
2022-09-01T00:45:33.359Z,97880.00
2022-09-01T00:48:01.638Z,97877.53
2022-09-01T00:50:29.980Z,97875.03
2022-09-01T00:52:58.625Z,97876.06
2022-09-01T00:55:32.581Z,97867.16
2022-09-01T00:58:02.682Z,97865.13
2022-09-01T01:00:41.938Z,97863.63
2022-09-01T01:03:11.626Z,97866.31
2022-09-01T01:05:54.029Z,97869.84
2022-09-01T01:08:30.902Z,97854.75
2022-09-01T01:10:59.261Z,97856.81
2022-09-01T01:13:28.759Z,97858.66
2022-09-01T01:15:59.621Z,97866.72
2022-09-01T01:18:28.161Z,97858.84
2022-09-01T01:21:21.669Z,97865.25
2022-09-01T01:23:57.750Z,97855.94
2022-09-01T01:26:27.421Z,97861.31
2022-09-01T01:28:56.167Z,97857.78
2022-09-01T01:31:24.759Z,97856.97
2022-09-01T01:33:58.885Z,97850.75
2022-09-01T01:36:32.651Z,97854.47
2022-09-01T01:39:05.104Z,97850.09
2022-09-01T01:41:40.943Z,97844.94
2022-09-01T01:44:09.934Z,97847.63
2022-09-01T01:46:42.972Z,97845.97
2022-09-01T01:49:13.356Z,97844.13
2022-09-01T01:51:42.318Z,97843.47
2022-09-01T01:54:10.715Z,97844.31
2022-09-01T01:56:41.894Z,97844.50
2022-09-01T01:59:15.428Z,97842.81
2022-09-01T02:01:51.298Z,97831.66
2022-09-01T02:04:21.684Z,97834.34
2022-09-01T02:06:52.045Z,97841.56
2022-09-01T02:09:23.277Z,97841.56
2022-09-01T02:11:57.352Z,97835.34
2022-09-01T02:14:26.189Z,97834.53
2022-09-01T02:16:56.146Z,97832.84
2022-09-01T02:19:24.669Z,97832.66
2022-09-01T02:21:56.102Z,97825.63
2022-09-01T02:24:26.456Z,97832.06
2022-09-01T02:26:59.217Z,97823.31
2022-09-01T02:29:28.808Z,97826.19
2022-09-01T02:31:58.358Z,97819.97
2022-09-01T02:34:29.017Z,97815.00
2022-09-01T02:36:58.619Z,97823.69
2022-09-01T02:39:32.692Z,97819.97
2022-09-01T02:42:02.832Z,97822.06
2022-09-01T02:44:32.701Z,97828.03
2022-09-01T02:47:02.076Z,97828.22
2022-09-01T02:49:31.391Z,97824.94
2022-09-01T02:52:01.501Z,97823.25
2022-09-01T02:54:31.957Z,97821.59
2022-09-01T02:57:04.020Z,97819.09
2022-09-01T02:59:34.882Z,97819.94
2022-09-01T03:02:03.301Z,97817.47
2022-09-01T03:04:35.088Z,97813.94
2022-09-01T03:07:04.486Z,97815.78
2022-09-01T03:09:35.155Z,97820.34
2022-09-01T03:14:35.569Z,97818.22
2022-09-01T03:19:40.213Z,97818.84
2022-09-01T03:22:08.793Z,97815.75
2022-09-01T03:24:37.310Z,97816.75
2022-09-01T03:27:07.471Z,97816.94
2022-09-01T03:29:36.981Z,97811.56
2022-09-01T03:32:06.053Z,97816.94
2022-09-01T03:34:36.911Z,97815.28
2022-09-01T03:37:10.963Z,97821.69
2022-09-01T03:39:39.705Z,97827.44
2022-09-01T03:42:12.358Z,97819.41
2022-09-01T03:44:42.016Z,97818.34
2022-09-01T03:47:15.249Z,97830.13
2022-09-01T03:49:45.490Z,97823.91
2022-09-01T03:52:14.746Z,97817.94
2022-09-01T03:54:43.861Z,97823.91
2022-09-01T03:57:13.970Z,97826.63
2022-09-01T03:59:45.269Z,97822.09
2022-09-01T04:02:15.129Z,97816.06
2022-09-01T04:04:43.712Z,97819.78
2022-09-01T04:07:19.385Z,97814.41
2022-09-01T04:09:47.875Z,97821.81
2022-09-01T04:12:17.564Z,97820.16
2022-09-01T04:14:48.051Z,97819.53
2022-09-01T04:17:33.739Z,97814.34
2022-09-01T04:20:08.822Z,97812.88
2022-09-01T04:22:38.427Z,97813.91
2022-09-01T04:25:08.963Z,97812.22
2022-09-01T04:27:40.461Z,97799.84
2022-09-01T04:30:11.688Z,97801.88
2022-09-01T04:32:41.641Z,97812.63
2022-09-01T04:35:16.859Z,97815.50
2022-09-01T04:37:47.593Z,97818.38
2022-09-01T04:40:18.649Z,97822.09
2022-09-01T04:42:48.501Z,97820.44
2022-09-01T04:45:20.803Z,97818.56
2022-09-01T04:47:49.347Z,97817.75
2022-09-01T04:50:18.134Z,97815.25
2022-09-01T04:52:47.821Z,97824.78
2022-09-01T04:55:18.529Z,97812.38
2022-09-01T04:57:50.349Z,97823.13
2022-09-01T05:00:25.521Z,97811.53
2022-09-01T05:02:57.403Z,97808.84
2022-09-01T05:05:27.273Z,97812.19
2022-09-01T05:07:55.642Z,97814.88
2022-09-01T05:10:29.961Z,97813.84
2022-09-01T05:13:00.226Z,97811.34
2022-09-01T05:15:30.764Z,97806.00
2022-09-01T05:18:02.333Z,97806.00
2022-09-01T05:20:32.041Z,97810.31
2022-09-01T05:23:01.880Z,97809.31
2022-09-01T05:25:30.199Z,97806.63
2022-09-01T05:27:59.889Z,97806.44
2022-09-01T05:30:28.771Z,97800.69
2022-09-01T05:32:57.175Z,97808.56
2022-09-01T05:35:32.886Z,97803.78
2022-09-01T05:38:02.522Z,97808.16
2022-09-01T05:40:32.099Z,97808.59
2022-09-01T05:43:02.706Z,97811.06
2022-09-01T05:45:44.935Z,97808.19
2022-09-01T05:48:23.677Z,97812.56
2022-09-01T05:50:56.217Z,97815.88
2022-09-01T05:53:26.943Z,97814.63
2022-09-01T05:55:57.019Z,97820.47
2022-09-01T05:59:22.592Z,97823.59
2022-09-01T06:01:22.148Z,97826.91
2022-09-01T06:03:54.797Z,97831.88
2022-09-01T06:06:24.877Z,97837.06
2022-09-01T06:08:58.881Z,97833.19
2022-09-01T06:11:33.060Z,97842.91
2022-09-01T06:14:03.247Z,97838.97
2022-09-01T06:16:31.882Z,97836.75
2022-09-01T06:19:00.667Z,97837.22
2022-09-01T06:21:29.372Z,97843.03
2022-09-01T06:23:59.351Z,97837.44
2022-09-01T06:26:31.087Z,97834.56
2022-09-01T06:29:04.791Z,97837.91
2022-09-01T06:31:39.185Z,97835.88
2022-09-01T06:34:17.730Z,97838.34
2022-09-01T06:36:48.384Z,97835.47
2022-09-01T06:39:20.701Z,97829.28
2022-09-01T06:41:52.995Z,97835.75
2022-09-01T06:44:23.468Z,97835.56
2022-09-01T06:46:53.098Z,97837.09
2022-09-01T06:49:23.673Z,97834.69
2022-09-01T06:51:52.787Z,97839.28
2022-09-01T06:54:21.715Z,97835.69
2022-09-01T06:56:51.603Z,97848.13
2022-09-01T06:59:23.363Z,97849.88
2022-09-01T07:02:01.489Z,97847.41
2022-09-01T07:04:31.549Z,97844.53
2022-09-01T07:08:04.583Z,97844.78
2022-09-01T07:10:06.339Z,97845.44
2022-09-01T07:13:04.787Z,97849.59
2022-09-01T07:16:32.162Z,97851.06
2022-09-01T07:18:21.357Z,97849.00
2022-09-01T07:21:35.664Z,97853.13
2022-09-01T07:26:29.104Z,97855.03
2022-09-01T07:29:01.966Z,97849.22
2022-09-01T07:31:50.570Z,97854.44
2022-09-01T07:45:33.368Z,97852.84
2022-09-01T07:48:06.478Z,97855.72
2022-09-01T07:51:34.740Z,97860.22
2022-09-01T07:53:31.623Z,97863.13
2022-09-01T07:56:09.538Z,97862.41
2022-09-01T07:58:40.290Z,97864.00
2022-09-01T08:01:10.028Z,97866.88
2022-09-01T08:03:40.003Z,97867.00
2022-09-01T08:06:11.453Z,97866.94
2022-09-01T08:08:41.557Z,97872.69
2022-09-01T08:11:10.282Z,97867.38
2022-09-01T08:13:42.000Z,97874.81
2022-09-01T08:16:19.548Z,97877.63
2022-09-01T08:18:50.427Z,97886.50
2022-09-01T08:21:22.214Z,97874.22
2022-09-01T08:23:51.464Z,97880.38
2022-09-01T08:26:22.318Z,97879.94
2022-09-01T08:28:58.475Z,97890.69
2022-09-01T08:31:30.653Z,97888.09
2022-09-01T08:34:00.988Z,97887.56
2022-09-01T08:36:29.248Z,97893.16
2022-09-01T08:38:57.603Z,97894.72
2022-09-01T08:41:40.884Z,97892.13
2022-09-01T08:44:28.774Z,97895.50
2022-09-01T08:47:02.897Z,97898.06
2022-09-01T08:49:44.297Z,97900.34
2022-09-01T08:52:25.636Z,97900.00
2022-09-01T08:55:00.826Z,97906.44
2022-09-01T08:57:34.933Z,97908.09
2022-09-01T09:00:05.523Z,97912.19
2022-09-01T09:02:53.941Z,97916.28
2022-09-01T09:05:40.825Z,97904.97
2022-09-01T09:08:40.585Z,97906.38
2022-09-01T09:11:24.133Z,97906.78
2022-09-01T09:14:07.230Z,97916.31
2022-09-01T09:16:42.673Z,97913.38
2022-09-01T09:19:18.227Z,97909.63
2022-09-01T09:21:51.218Z,97908.88
2022-09-01T09:24:47.243Z,97912.66
2022-09-01T09:27:21.741Z,97911.75
2022-09-01T09:29:53.461Z,97899.69
2022-09-01T09:32:31.583Z,97898.06
2022-09-01T09:35:23.437Z,97899.63
2022-09-01T09:37:53.634Z,97905.19
2022-09-01T09:40:25.442Z,97892.50
2022-09-01T09:43:08.536Z,97894.63
2022-09-01T09:45:41.988Z,97892.47
2022-09-01T09:48:29.034Z,97896.00
2022-09-01T09:50:57.573Z,97896.38
2022-09-01T09:53:32.599Z,97897.34
2022-09-01T09:56:05.288Z,97888.50
2022-09-01T09:58:39.535Z,97892.00
2022-09-01T10:01:16.282Z,97893.88
2022-09-01T10:03:49.449Z,97890.47
2022-09-01T10:06:34.523Z,97890.22
2022-09-01T10:09:07.747Z,97892.47
2022-09-01T10:11:41.558Z,97881.53
2022-09-01T10:14:35.517Z,97888.69
2022-09-01T10:17:15.735Z,97899.06
2022-09-01T10:19:52.353Z,97887.34
2022-09-01T10:22:21.734Z,97892.22
2022-09-01T10:24:51.651Z,97892.16
2022-09-01T10:27:25.270Z,97889.97
2022-09-01T10:30:18.670Z,97896.56
2022-09-01T10:32:55.826Z,97893.09
2022-09-01T10:35:29.830Z,97885.28
2022-09-01T10:38:00.502Z,97887.84
2022-09-01T10:40:49.230Z,97884.16
2022-09-01T10:43:36.333Z,97880.63
2022-09-01T10:46:50.783Z,97886.03
2022-09-01T10:50:07.723Z,97875.34
2022-09-01T10:53:11.477Z,97880.22
2022-09-01T10:55:48.424Z,97875.56
2022-09-01T11:02:25.846Z,97864.44
2022-09-01T11:05:16.934Z,97867.72
2022-09-01T11:08:09.055Z,97864.44
2022-09-01T11:10:50.090Z,97855.06
2022-09-01T11:13:47.718Z,97855.34
2022-09-01T11:16:52.386Z,97860.38
2022-09-01T11:19:39.524Z,97845.75
2022-09-01T11:22:25.953Z,97850.59
2022-09-01T11:25:40.493Z,97847.31
2022-09-01T11:28:47.656Z,97854.03
2022-09-01T11:31:32.803Z,97842.94
2022-09-01T11:34:15.000Z,97852.00
2022-09-01T11:37:13.844Z,97839.97
2022-09-01T11:39:47.916Z,97842.16
2022-09-01T11:42:21.201Z,97846.50
2022-09-01T11:44:58.799Z,97844.69
2022-09-01T11:47:32.307Z,97848.53
2022-09-01T11:50:03.900Z,97846.84
2022-09-01T11:52:37.564Z,97848.59
2022-09-01T11:55:08.565Z,97844.78
2022-09-01T11:57:39.560Z,97837.13
2022-09-01T12:00:12.893Z,97850.63
2022-09-01T12:02:46.946Z,97843.47
2022-09-01T12:05:32.646Z,97839.78
2022-09-01T12:08:05.770Z,97836.66
2022-09-01T12:10:37.671Z,97828.38
2022-09-01T12:13:09.251Z,97829.38
2022-09-01T12:16:00.390Z,97832.00
2022-09-01T12:18:35.084Z,97833.94
2022-09-01T12:21:07.899Z,97834.31
2022-09-01T12:23:43.081Z,97833.94
2022-09-01T12:26:15.150Z,97839.75
2022-09-01T12:28:44.218Z,97843.50
2022-09-01T12:31:18.995Z,97844.44
2022-09-01T12:33:49.024Z,97844.47
2022-09-01T12:36:24.944Z,97841.28
2022-09-01T12:38:57.030Z,97844.13
2022-09-01T12:41:38.949Z,97843.63
2022-09-01T12:44:34.434Z,97835.25
2022-09-01T12:47:06.830Z,97830.88
2022-09-01T12:49:48.092Z,97836.19
2022-09-01T12:52:27.154Z,97834.41
2022-09-01T12:55:47.352Z,97832.53
2022-09-01T12:58:06.274Z,97830.16
2022-09-01T13:00:37.156Z,97834.28
2022-09-01T13:03:14.503Z,97830.72
2022-09-01T13:05:44.503Z,97835.59
2022-09-01T13:08:15.820Z,97832.53
2022-09-01T13:10:48.589Z,97836.31
2022-09-01T13:13:18.364Z,97829.44
2022-09-01T13:15:50.300Z,97829.69
2022-09-01T13:18:19.530Z,97826.16
2022-09-01T13:20:48.255Z,97825.69
2022-09-01T13:23:17.596Z,97822.03
2022-09-01T13:25:47.894Z,97819.50
2022-09-01T13:28:18.139Z,97821.84
2022-09-01T13:31:28.702Z,97812.16
2022-09-01T13:39:20.386Z,97821.47
2022-09-01T13:41:50.738Z,97815.47
2022-09-01T13:44:19.563Z,97818.19
2022-09-01T13:50:04.900Z,97822.53
2022-09-01T13:52:24.731Z,97818.75
2022-09-01T13:54:53.357Z,97819.66
2022-09-01T13:57:23.104Z,97816.63
2022-09-01T13:59:51.802Z,97814.97
2022-09-01T14:02:20.450Z,97812.69
2022-09-01T14:04:48.847Z,97812.00
2022-09-01T14:07:18.889Z,97818.69
2022-09-01T14:09:47.615Z,97805.53
2022-09-01T14:12:15.958Z,97804.31
2022-09-01T14:17:34.014Z,97801.94
2022-09-01T14:20:02.640Z,97797.09
2022-09-01T14:22:34.128Z,97801.78
2022-09-01T14:25:05.580Z,97801.31
2022-09-01T14:27:34.037Z,97805.41
2022-09-01T14:30:04.117Z,97797.50
2022-09-01T14:32:32.463Z,97793.72
2022-09-01T14:35:01.725Z,97793.03
2022-09-01T14:37:30.476Z,97785.16
2022-09-01T14:39:59.743Z,97786.75
2022-09-01T14:42:29.808Z,97785.22
2022-09-01T14:44:58.440Z,97778.16
2022-09-01T14:47:28.276Z,97785.81
2022-09-01T14:49:57.274Z,97781.19
2022-09-01T14:52:25.645Z,97783.09
2022-09-01T14:54:54.059Z,97773.63
2022-09-01T14:57:36.930Z,97778.72
2022-09-01T15:00:12.416Z,97777.72
2022-09-01T15:02:44.355Z,97778.94
2022-09-01T15:05:14.062Z,97771.78
2022-09-01T15:07:43.207Z,97772.44
2022-09-01T15:10:16.157Z,97777.19
2022-09-01T15:12:54.582Z,97778.16
2022-09-01T15:15:23.675Z,97772.03
2022-09-01T15:17:54.226Z,97776.69
2022-09-01T15:20:41.088Z,97784.75
2022-09-01T15:23:10.118Z,97773.31
2022-09-01T15:25:38.683Z,97772.66
2022-09-01T15:28:07.379Z,97776.34
2022-09-01T15:30:36.991Z,97780.25
2022-09-01T15:33:08.372Z,97785.00
2022-09-01T15:35:39.609Z,97786.97
2022-09-01T15:38:08.267Z,97779.19
2022-09-01T15:40:40.208Z,97780.94
2022-09-01T15:43:09.149Z,97791.72
2022-09-01T15:45:37.715Z,97783.44
2022-09-01T15:48:07.585Z,97784.88
2022-09-01T15:50:36.026Z,97780.06
2022-09-01T15:53:08.467Z,97780.16
2022-09-01T15:55:42.306Z,97778.38
2022-09-01T15:58:12.898Z,97782.63
2022-09-01T16:00:43.165Z,97778.69
2022-09-01T16:03:13.965Z,97781.06
2022-09-01T16:05:42.739Z,97779.63
2022-09-01T16:08:12.250Z,97778.47
2022-09-01T16:10:42.311Z,97776.00
2022-09-01T16:13:13.047Z,97779.41
2022-09-01T16:15:48.269Z,97774.69
2022-09-01T16:18:31.986Z,97777.06
2022-09-01T16:21:09.952Z,97780.81
2022-09-01T16:23:44.218Z,97781.25
2022-09-01T16:26:12.891Z,97779.63
2022-09-01T16:28:46.846Z,97779.72
2022-09-01T16:31:21.280Z,97780.19
2022-09-01T16:33:54.848Z,97779.84
2022-09-01T16:36:38.545Z,97776.53
2022-09-01T16:39:18.474Z,97779.09
2022-09-01T16:41:58.711Z,97784.84
2022-09-01T16:44:45.126Z,97781.84
2022-09-01T16:47:35.886Z,97778.63
2022-09-01T16:50:17.960Z,97784.97
2022-09-01T16:53:09.939Z,97778.81
2022-09-01T16:55:48.793Z,97776.19
2022-09-01T16:58:24.013Z,97795.59
2022-09-01T17:01:06.082Z,97786.75
2022-09-01T17:03:43.035Z,97789.91
2022-09-01T17:06:22.804Z,97795.16
2022-09-01T17:08:55.409Z,97783.72
2022-09-01T17:11:34.605Z,97789.22
2022-09-01T17:14:04.501Z,97790.28
2022-09-01T17:16:39.508Z,97790.72
2022-09-01T17:19:12.996Z,97786.84
2022-09-01T17:21:52.864Z,97794.34
2022-09-01T17:24:35.191Z,97794.41
2022-09-01T17:27:11.004Z,97797.78
2022-09-01T17:29:44.942Z,97801.41
2022-09-01T17:32:48.283Z,97796.75
2022-09-01T17:35:24.980Z,97802.44
2022-09-01T17:38:09.004Z,97807.31
2022-09-01T17:40:58.366Z,97805.91
2022-09-01T17:43:42.997Z,97813.25
2022-09-01T17:46:20.498Z,97819.56
2022-09-01T17:48:54.364Z,97812.34
2022-09-01T17:51:30.651Z,97821.91
2022-09-01T17:54:12.809Z,97820.13
2022-09-01T17:56:52.784Z,97818.06
2022-09-01T17:59:31.871Z,97820.38
2022-09-01T18:02:19.146Z,97831.00
2022-09-01T18:05:05.823Z,97827.31
2022-09-01T18:07:56.986Z,97826.31
2022-09-01T18:10:31.997Z,97834.03
2022-09-01T18:13:07.414Z,97837.34
2022-09-01T18:15:51.826Z,97833.88
2022-09-01T18:18:36.417Z,97839.09
2022-09-01T18:21:09.492Z,97847.84
2022-09-01T18:23:40.911Z,97850.38
2022-09-01T18:26:24.554Z,97848.75
2022-09-01T18:28:55.743Z,97845.84
2022-09-01T18:31:56.952Z,97850.47
2022-09-01T18:34:39.298Z,97851.31
2022-09-01T18:37:15.487Z,97853.19
2022-09-01T18:39:53.411Z,97852.19
2022-09-01T18:42:32.053Z,97854.06
2022-09-01T18:45:09.605Z,97850.56
2022-09-01T18:47:49.158Z,97852.44
2022-09-01T18:50:25.118Z,97855.19
2022-09-01T18:53:13.270Z,97855.41
2022-09-01T18:55:52.724Z,97861.41
2022-09-01T18:58:38.209Z,97859.78
2022-09-01T19:01:09.608Z,97856.91
2022-09-01T19:03:43.591Z,97864.97
2022-09-01T19:06:28.497Z,97862.50
2022-09-01T19:09:09.690Z,97861.00
2022-09-01T19:11:59.748Z,97859.16
2022-09-01T19:14:42.753Z,97861.66
2022-09-01T19:17:57.524Z,97858.53
2022-09-01T19:20:45.118Z,97857.09
2022-09-01T19:23:21.905Z,97857.06
2022-09-01T19:25:52.582Z,97857.69
2022-09-01T19:28:26.881Z,97859.56
2022-09-01T19:31:19.103Z,97868.03
2022-09-01T19:33:52.071Z,97861.59
2022-09-01T19:36:27.609Z,97865.47
2022-09-01T19:38:58.471Z,97868.16
2022-09-01T19:41:33.981Z,97872.06
2022-09-01T19:44:14.269Z,97862.31
2022-09-01T19:46:49.542Z,97859.97
2022-09-01T19:49:29.906Z,97862.66
2022-09-01T19:52:08.683Z,97858.28
2022-09-01T19:54:47.603Z,97856.59
2022-09-01T19:57:23.225Z,97854.91
2022-09-01T19:59:59.611Z,97859.84
2022-09-01T20:02:36.970Z,97854.38
2022-09-01T20:05:14.464Z,97856.03
2022-09-01T20:07:49.032Z,97868.00
2022-09-01T20:10:51.615Z,97857.41
2022-09-01T20:13:52.959Z,97861.09
2022-09-01T20:16:31.853Z,97853.59
2022-09-01T20:19:07.152Z,97856.06
2022-09-01T20:21:39.919Z,97846.72
2022-09-01T20:24:18.074Z,97853.06
2022-09-01T20:26:57.638Z,97852.84
2022-09-01T20:29:36.860Z,97852.00
2022-09-01T20:32:05.973Z,97853.56
2022-09-01T20:34:43.259Z,97846.66
2022-09-01T20:37:21.152Z,97849.31
2022-09-01T20:40:01.873Z,97847.19
2022-09-01T20:42:42.180Z,97859.91
2022-09-01T20:45:15.832Z,97855.97
2022-09-01T20:47:51.382Z,97856.72
2022-09-01T20:50:26.194Z,97847.78
2022-09-01T20:53:18.841Z,97854.56
2022-09-01T20:55:53.951Z,97851.63
2022-09-01T20:58:33.325Z,97852.19
2022-09-01T21:01:18.004Z,97844.72
2022-09-01T21:04:05.884Z,97838.25
2022-09-01T21:06:50.269Z,97845.84
2022-09-01T21:09:30.035Z,97842.09
2022-09-01T21:12:08.406Z,97852.16
2022-09-01T21:14:50.903Z,97855.44
2022-09-01T21:17:30.448Z,97855.16
2022-09-01T21:20:10.008Z,97850.34
2022-09-01T21:22:39.697Z,97853.22
2022-09-01T21:25:08.524Z,97849.41
2022-09-01T21:27:44.128Z,97845.66
2022-09-01T21:30:15.605Z,97859.44
2022-09-01T21:32:44.489Z,97857.50
2022-09-01T21:35:21.190Z,97849.56
2022-09-01T21:37:51.581Z,97851.63
2022-09-01T21:40:23.435Z,97842.28
2022-09-01T21:42:55.947Z,97843.66
2022-09-01T21:45:25.112Z,97849.38
2022-09-01T21:47:54.633Z,97838.41
2022-09-01T21:50:25.636Z,97842.47
2022-09-01T21:52:55.433Z,97835.16
2022-09-01T21:55:24.839Z,97832.84
2022-09-01T21:57:53.849Z,97839.44
2022-09-01T22:00:26.833Z,97834.63
2022-09-01T22:02:57.614Z,97833.34
2022-09-01T22:05:26.310Z,97834.53
2022-09-01T22:07:58.978Z,97827.84
2022-09-01T22:10:32.264Z,97824.72
2022-09-01T22:13:03.530Z,97834.78
2022-09-01T22:15:32.711Z,97831.63
2022-09-01T22:18:01.068Z,97826.81
2022-09-01T22:20:31.956Z,97832.72
2022-09-01T22:23:02.950Z,97836.63
2022-09-01T22:25:34.270Z,97828.94
2022-09-01T22:28:05.254Z,97831.81
2022-09-01T22:30:34.660Z,97820.63
2022-09-01T22:33:07.628Z,97823.66
2022-09-01T22:35:36.267Z,97828.38
2022-09-01T22:38:05.947Z,97819.69
2022-09-01T22:40:34.341Z,97816.72
2022-09-01T22:43:04.155Z,97821.63
2022-09-01T22:45:32.474Z,97818.28
2022-09-01T22:48:00.809Z,97815.16
2022-09-01T22:50:29.157Z,97822.34
2022-09-01T22:52:57.643Z,97819.19
2022-09-01T22:55:28.153Z,97823.25
2022-09-01T22:57:56.434Z,97815.59
2022-09-01T23:00:24.778Z,97810.59
2022-09-01T23:02:53.103Z,97818.81
2022-09-01T23:05:23.173Z,97824.53
2022-09-01T23:07:52.671Z,97817.69
2022-09-01T23:10:21.326Z,97804.69
2022-09-01T23:12:51.073Z,97812.22
2022-09-01T23:15:19.611Z,97809.91
2022-09-01T23:17:47.999Z,97811.09
2022-09-01T23:20:16.623Z,97806.88
2022-09-01T23:22:46.352Z,97807.91
2022-09-01T23:25:16.903Z,97808.44
2022-09-01T23:27:45.566Z,97809.84
2022-09-01T23:30:16.895Z,97808.34
2022-09-01T23:32:45.322Z,97800.69
2022-09-01T23:35:14.011Z,97792.84
2022-09-01T23:37:44.939Z,97795.88
2022-09-01T23:40:14.219Z,97797.72
2022-09-01T23:42:42.616Z,97789.03
2022-09-01T23:45:12.446Z,97798.06
2022-09-01T23:47:42.131Z,97789.38
2022-09-01T23:50:11.518Z,97787.06
2022-09-01T23:52:39.810Z,97789.28
2022-09-01T23:55:09.590Z,97781.59
2022-09-01T23:57:38.400Z,97785.63
